Time;durP1;ratioP1;P1;durP2;ratioP2;P2;SDS_P1;SDS_P2;PMS_P1;PMS_P2;Temp;Humidity;BMP_temperature;BMP_pressure;BME280_temperature;BME280_humidity;BME280_pressure;Samples;Min_cycle;Max_cycle;Signal;HPM_P1;HPM_P2
2022/07/06 00:00:10;;;;;;;14.10;13.50;;;;;;;-141.02;100.00;55844.97;5092091;28;20679;-70
2022/07/06 00:02:37;;;;;;;14.10;13.50;;;;;;;-141.02;100.00;55844.97;5092327;28;20224;-70
2022/07/06 00:05:07;;;;;;;14.07;13.48;;;;;;;-141.02;100.00;55844.97;5092346;28;20644;-70
2022/07/06 00:07:34;;;;;;;14.25;13.65;;;;;;;-141.02;100.00;55844.97;5092020;28;20200;-71
2022/07/06 00:10:01;;;;;;;14.13;13.52;;;;;;;-141.02;100.00;55844.97;5091962;28;20229;-71
2022/07/06 00:12:28;;;;;;;14.30;13.70;;;;;;;-141.02;100.00;55844.97;5092308;28;20194;-71
2022/07/06 00:14:55;;;;;;;14.07;13.48;;;;;;;-141.02;100.00;55844.97;5092175;28;20233;-70
2022/07/06 00:17:22;;;;;;;14.20;13.60;;;;;;;-141.02;100.00;55844.97;5093248;28;20225;-70
2022/07/06 00:19:49;;;;;;;14.50;13.90;;;;;;;-141.02;100.00;55844.97;5096312;28;20256;-70
2022/07/06 00:22:17;;;;;;;14.10;13.50;;;;;;;-141.02;100.00;55844.97;5096290;28;20276;-71
2022/07/06 00:24:44;;;;;;;14.45;13.85;;;;;;;-141.02;100.00;55844.97;5095976;28;20280;-70
2022/07/06 00:27:11;;;;;;;14.00;13.40;;;;;;;-141.02;100.00;55844.97;5096169;28;20229;-70
2022/07/06 00:29:43;;;;;;;12.60;12.10;;;;;;;-141.02;100.00;55844.97;5095828;28;20232;-71
2022/07/06 00:32:11;;;;;;;13.02;12.52;;;;;;;-141.02;100.00;55844.97;5095817;28;20567;-70
2022/07/06 00:34:39;;;;;;;12.93;12.43;;;;;;;-141.02;100.00;55844.97;5096071;28;20197;-70
2022/07/06 00:37:06;;;;;;;13.40;12.90;;;;;;;-141.02;100.00;55844.97;5095903;28;20334;-70
2022/07/06 00:39:35;;;;;;;13.10;12.60;;;;;;;-141.02;100.00;55844.97;5096510;28;20201;-70
2022/07/06 00:42:02;;;;;;;13.38;12.88;;;;;;;-141.02;100.00;55844.97;5095623;28;20194;-70
2022/07/06 00:44:32;;;;;;;13.75;13.25;;;;;;;-141.02;100.00;55844.97;5095531;28;20189;-70
2022/07/06 00:46:59;;;;;;;13.85;13.35;;;;;;;-141.02;100.00;55844.97;5095813;28;20251;-70
2022/07/06 00:52:11;;;;;;;14.10;13.50;;;;;;;-141.02;100.00;55844.97;5095614;28;20670;-70
2022/07/06 00:54:42;;;;;;;14.20;13.60;;;;;;;-141.02;100.00;55844.97;5095368;28;20316;-70
2022/07/06 00:57:10;;;;;;;14.77;14.18;;;;;;;-141.02;100.00;55844.97;5095282;28;20639;-70
2022/07/06 00:59:37;;;;;;;15.30;14.60;;;;;;;-141.02;100.00;55844.97;5095254;28;20240;-70
2022/07/06 01:02:04;;;;;;;15.60;14.90;;;;;;;-141.02;100.00;55844.97;5095220;28;20236;-70
2022/07/06 01:04:32;;;;;;;15.52;14.82;;;;;;;-141.02;100.00;55844.97;5095467;28;20297;-70
2022/07/06 01:06:59;;;;;;;15.32;14.63;;;;;;;-141.02;100.00;55844.97;5095420;28;20198;-70
2022/07/06 01:09:26;;;;;;;15.10;14.40;;;;;;;-141.02;100.00;55844.97;5095397;28;20263;-70
2022/07/06 01:11:55;;;;;;;15.40;14.70;;;;;;;-141.02;100.00;55844.97;5095345;28;20255;-70
2022/07/06 01:14:22;;;;;;;15.30;14.60;;;;;;;-141.02;100.00;55844.97;5095046;28;20612;-70
2022/07/06 01:16:50;;;;;;;15.40;14.70;;;;;;;-141.02;100.00;55844.97;5094851;28;20316;-70
2022/07/06 01:19:17;;;;;;;14.95;14.35;;;;;;;-141.02;100.00;55844.97;5095226;28;20229;-70
2022/07/06 01:21:45;;;;;;;14.88;14.27;;;;;;;-141.02;100.00;55844.97;5095674;28;20564;-70
2022/07/06 01:24:12;;;;;;;14.57;13.98;;;;;;;-141.02;100.00;55844.97;5095073;28;20569;-70
2022/07/06 01:26:39;;;;;;;14.90;14.20;;;;;;;-141.02;100.00;55844.97;5095056;28;20717;-70
2022/07/06 01:29:06;;;;;;;15.32;14.63;;;;;;;-141.02;100.00;55844.97;5094188;28;20243;-70
2022/07/06 01:31:33;;;;;;;15.38;14.68;;;;;;;-141.02;100.00;55844.97;5094994;28;20263;-70
2022/07/06 01:34:01;;;;;;;15.63;14.93;;;;;;;-141.02;100.00;55844.97;5094930;28;20194;-70
2022/07/06 01:36:28;;;;;;;15.60;14.90;;;;;;;-141.02;100.00;55844.97;5094825;28;20316;-70
2022/07/06 01:38:58;;;;;;;16.20;15.40;;;;;;;-141.02;100.00;55844.97;5094875;28;20201;-70
2022/07/06 01:41:25;;;;;;;15.57;14.88;;;;;;;-141.02;100.00;55844.97;5094705;28;20235;-70
2022/07/06 01:43:52;;;;;;;15.82;15.13;;;;;;;-141.02;100.00;55844.97;5094784;28;20263;-70
2022/07/06 01:46:19;;;;;;;15.80;15.00;;;;;;;-141.02;100.00;55844.97;5094656;28;20233;-70
2022/07/06 01:48:47;;;;;;;15.70;15.00;;;;;;;-141.02;100.00;55844.97;5094370;28;20200;-70
2022/07/06 01:51:15;;;;;;;15.40;14.70;;;;;;;-141.02;100.00;55844.97;5094305;28;20667;-70
2022/07/06 01:53:42;;;;;;;15.95;15.25;;;;;;;-141.02;100.00;55844.97;5094580;28;20194;-70
2022/07/06 01:56:11;;;;;;;15.63;14.93;;;;;;;-141.02;100.00;55844.97;5093946;28;20642;-70
2022/07/06 01:58:39;;;;;;;16.42;15.63;;;;;;;-141.02;100.00;55844.97;5094061;28;20710;-70
2022/07/06 02:01:10;;;;;;;17.00;16.20;;;;;;;-141.02;100.00;55844.97;5094094;28;20289;-70
2022/07/06 02:03:38;;;;;;;17.27;16.48;;;;;;;-141.02;100.00;55844.97;5094854;28;20230;-70
2022/07/06 02:06:06;;;;;;;16.67;15.88;;;;;;;-141.02;100.00;55844.97;5094252;28;20270;-70
2022/07/06 02:08:34;;;;;;;16.90;16.10;;;;;;;-141.02;100.00;55844.97;5093962;28;20575;-70
2022/07/06 02:11:01;;;;;;;17.10;16.30;;;;;;;-141.02;100.00;55844.97;5094212;28;20231;-70
2022/07/06 02:13:30;;;;;;;17.00;16.20;;;;;;;-141.02;100.00;55844.97;5094208;28;20233;-70
2022/07/06 02:15:57;;;;;;;16.63;15.82;;;;;;;-141.02;100.00;55844.97;5093705;28;20625;-70
2022/07/06 02:18:24;;;;;;;16.17;15.38;;;;;;;-141.02;100.00;55844.97;5094066;28;20695;-70
2022/07/06 02:20:51;;;;;;;16.27;15.48;;;;;;;-141.02;100.00;55844.97;5093674;28;20194;-70
2022/07/06 02:23:18;;;;;;;16.52;15.73;;;;;;;-141.02;100.00;55844.97;5093973;28;20217;-70
2022/07/06 02:25:45;;;;;;;17.15;16.25;;;;;;;-141.02;100.00;55844.97;5093609;28;20575;-70
2022/07/06 02:28:12;;;;;;;16.15;15.35;;;;;;;-141.02;100.00;55844.97;5093545;28;20232;-70
2022/07/06 02:30:40;;;;;;;16.02;15.23;;;;;;;-141.02;100.00;55844.97;5093518;28;20629;-70
2022/07/06 02:33:07;;;;;;;15.85;15.05;;;;;;;-141.02;100.00;55844.97;5093762;28;20229;-70
2022/07/06 02:35:35;;;;;;;16.08;15.27;;;;;;;-141.02;100.00;55844.97;5093447;28;20725;-70
2022/07/06 02:38:02;;;;;;;15.93;15.13;;;;;;;-141.02;100.00;55844.97;5093656;28;20312;-70
2022/07/06 02:40:28;;;;;;;15.98;15.18;;;;;;;-141.02;100.00;55844.97;5093659;28;20229;-70
2022/07/06 02:42:55;;;;;;;16.40;15.60;;;;;;;-141.02;100.00;55844.97;5093356;28;20289;-70
2022/07/06 02:45:23;;;;;;;16.25;15.45;;;;;;;-141.02;100.00;55844.97;5093225;28;20663;-70
2022/07/06 02:47:53;;;;;;;16.60;15.70;;;;;;;-141.02;100.00;55844.97;5093157;28;20570;-70
2022/07/06 02:50:20;;;;;;;17.00;16.10;;;;;;;-141.02;100.00;55844.97;5093430;28;20194;-70
2022/07/06 02:52:47;;;;;;;16.40;15.60;;;;;;;-141.02;100.00;55844.97;5093418;28;20190;-70
2022/07/06 02:55:14;;;;;;;16.00;15.20;;;;;;;-141.02;100.00;55844.97;5092869;28;20286;-70
2022/07/06 02:57:41;;;;;;;16.25;15.45;;;;;;;-141.02;100.00;55844.97;5093208;28;20225;-70
2022/07/06 03:00:10;;;;;;;16.70;15.80;;;;;;;-141.02;100.00;55844.97;5093000;28;20281;-70
2022/07/06 03:02:37;;;;;;;16.10;15.30;;;;;;;-141.02;100.00;55844.97;5093213;28;20701;-70
2022/07/06 03:05:06;;;;;;;16.20;15.40;;;;;;;-141.02;100.00;55844.97;5093178;28;20275;-70
2022/07/06 03:07:33;;;;;;;16.00;15.20;;;;;;;-141.02;100.00;55844.97;5092830;28;20225;-70
2022/07/06 03:10:00;;;;;;;15.52;14.82;;;;;;;-141.02;100.00;55844.97;5093154;28;20198;-70
2022/07/06 03:12:28;;;;;;;15.70;14.90;;;;;;;-141.02;100.00;55844.97;5093096;28;20190;-70
2022/07/06 03:14:54;;;;;;;15.50;14.80;;;;;;;-141.02;100.00;55844.97;5092699;28;20653;-70
2022/07/06 03:17:22;;;;;;;15.40;14.70;;;;;;;-141.02;100.00;55844.97;5092928;28;20257;-70
2022/07/06 03:19:49;;;;;;;15.45;14.75;;;;;;;-141.02;100.00;55844.97;5092578;28;20206;-70
2022/07/06 03:22:17;;;;;;;15.80;15.10;;;;;;;-141.02;100.00;55844.97;5092598;28;20679;-70
2022/07/06 03:24:44;;;;;;;15.77;14.98;;;;;;;-141.02;100.00;55844.97;5092874;28;20294;-70
2022/07/06 03:27:11;;;;;;;15.75;15.00;;;;;;;-141.02;100.00;55844.97;5092521;28;20247;-70
2022/07/06 03:29:38;;;;;;;15.85;15.07;;;;;;;-141.02;100.00;55844.97;5092519;28;20247;-70
2022/07/06 03:32:06;;;;;;;15.80;15.00;;;;;;;-141.02;100.00;55844.97;5092732;28;20247;-70
2022/07/06 03:34:33;;;;;;;16.00;15.20;;;;;;;-141.02;100.00;55844.97;5092742;28;20311;-70
2022/07/06 03:37:00;;;;;;;15.88;15.07;;;;;;;-141.02;100.00;55844.97;5092611;28;20283;-70
2022/07/06 03:39:28;;;;;;;15.90;15.10;;;;;;;-141.02;100.00;55844.97;5092333;28;20197;-70
2022/07/06 03:41:55;;;;;;;15.55;14.85;;;;;;;-141.02;100.00;55844.97;5093142;28;20711;-70
2022/07/06 03:44:22;;;;;;;14.95;14.25;;;;;;;-141.02;100.00;55844.97;5092562;28;20671;-70
2022/07/06 03:46:50;;;;;;;14.35;13.75;;;;;;;-141.02;100.00;55844.97;5092549;28;20202;-70
2022/07/06 03:49:17;;;;;;;15.00;14.30;;;;;;;-141.02;100.00;55844.97;5092128;28;20682;-70
2022/07/06 03:51:44;;;;;;;15.20;14.50;;;;;;;-141.02;100.00;55844.97;5091751;28;20251;-70
2022/07/06 03:54:11;;;;;;;15.18;14.48;;;;;;;-141.02;100.00;55844.97;5092219;28;20255;-70
2022/07/06 03:56:42;;;;;;;16.00;15.20;;;;;;;-141.02;100.00;55844.97;5092084;28;20243;-70
2022/07/06 03:59:09;;;;;;;16.30;15.50;;;;;;;-141.02;100.00;55844.97;5092374;28;20237;-70
2022/07/06 04:01:37;;;;;;;17.52;16.52;;;;;;;-141.02;100.00;55844.97;5092040;28;20687;-70
2022/07/06 04:04:03;;;;;;;18.17;17.08;;;;;;;-141.02;100.00;55844.97;5092043;28;20236;-70
2022/07/06 04:06:31;;;;;;;18.15;17.05;;;;;;;-141.02;100.00;55844.97;5092291;28;20276;-70
2022/07/06 04:08:58;;;;;;;18.98;17.77;;;;;;;-141.02;100.00;55844.97;5092012;28;20664;-70
2022/07/06 04:11:25;;;;;;;18.70;17.50;;;;;;;-141.02;100.00;55844.97;5092329;28;20302;-70
2022/07/06 04:13:54;;;;;;;20.30;18.90;;;;;;;-141.02;100.00;55844.97;5091914;28;20668;-70
2022/07/06 04:16:21;;;;;;;20.02;18.73;;;;;;;-141.02;100.00;55844.97;5091937;28;20194;-70
2022/07/06 04:18:48;;;;;;;19.88;18.58;;;;;;;-141.02;100.00;55844.97;5092669;28;20246;-70
2022/07/06 04:21:15;;;;;;;19.63;18.42;;;;;;;-141.02;100.00;55844.97;5092199;28;20614;-69
2022/07/06 04:23:42;;;;;;;19.20;18.10;;;;;;;-141.02;100.00;55844.97;5092201;28;20239;-70
2022/07/06 04:26:09;;;;;;;18.48;17.48;;;;;;;-141.02;100.00;55844.97;5092161;28;20267;-70
2022/07/06 04:28:36;;;;;;;16.83;16.13;;;;;;;-141.02;100.00;55844.97;5092136;28;20229;-70
2022/07/06 04:31:05;;;;;;;14.40;13.90;;;;;;;-141.02;100.00;55844.97;5091813;28;20194;-70
2022/07/06 04:33:32;;;;;;;13.63;13.13;;;;;;;-141.02;100.00;55844.97;5091824;28;20233;-70
2022/07/06 04:35:59;;;;;;;12.88;12.48;;;;;;;-141.02;100.00;55844.97;5091783;28;20233;-70
2022/07/06 04:38:26;;;;;;;13.13;12.73;;;;;;;-141.02;100.00;55844.97;5092004;28;20302;-70
2022/07/06 04:40:53;;;;;;;12.82;12.43;;;;;;;-141.02;100.00;55844.97;5092046;28;20237;-70
2022/07/06 04:43:20;;;;;;;12.90;12.50;;;;;;;-141.02;100.00;55844.97;5091979;28;20205;-71
2022/07/06 04:45:47;;;;;;;13.15;12.65;;;;;;;-141.02;100.00;55844.97;5092005;28;20285;-70
2022/07/06 04:48:15;;;;;;;13.13;12.68;;;;;;;-141.02;100.00;55844.97;5091644;28;20272;-71
2022/07/06 04:50:42;;;;;;;12.65;12.25;;;;;;;-141.02;100.00;55844.97;5091598;28;20645;-70
2022/07/06 04:53:09;;;;;;;12.85;12.45;;;;;;;-141.02;100.00;55844.97;5091915;28;20259;-70
2022/07/06 04:55:36;;;;;;;12.68;12.27;;;;;;;-141.02;100.00;55844.97;5091312;28;20784;-70
2022/07/06 04:58:03;;;;;;;12.95;12.55;;;;;;;-141.02;100.00;55844.97;5091857;28;20673;-70
2022/07/06 05:00:31;;;;;;;13.60;13.10;;;;;;;-141.02;100.00;55844.97;5091787;28;20280;-70
2022/07/06 05:02:58;;;;;;;13.27;12.88;;;;;;;-141.02;100.00;55844.97;5092668;28;20190;-69
2022/07/06 05:05:26;;;;;;;13.50;13.00;;;;;;;-141.02;100.00;55844.97;5094611;28;20210;-69
2022/07/06 05:07:53;;;;;;;13.40;12.90;;;;;;;-141.02;100.00;55844.97;5095458;28;20193;-69
2022/07/06 05:10:20;;;;;;;13.55;13.05;;;;;;;-141.02;100.00;55844.97;5095138;28;20229;-69
2022/07/06 05:12:47;;;;;;;13.13;12.73;;;;;;;-141.02;100.00;55844.97;5095050;28;20240;-69
2022/07/06 05:15:14;;;;;;;13.60;13.10;;;;;;;-141.02;100.00;55844.97;5095340;28;20190;-69
2022/07/06 05:17:41;;;;;;;12.93;12.52;;;;;;;-141.02;100.00;55844.97;5095171;28;20226;-69
2022/07/06 05:20:09;;;;;;;12.90;12.50;;;;;;;-141.02;100.00;55844.97;5095252;28;20276;-69
2022/07/06 05:22:37;;;;;;;12.63;12.23;;;;;;;-141.02;100.00;55844.97;5094887;28;20233;-69
2022/07/06 05:25:05;;;;;;;12.95;12.55;;;;;;;-141.02;100.00;55844.97;5095111;28;20190;-69
2022/07/06 05:27:32;;;;;;;13.00;12.60;;;;;;;-141.02;100.00;55844.97;5095102;28;20233;-69
2022/07/06 05:29:59;;;;;;;12.90;12.50;;;;;;;-141.02;100.00;55844.97;5095048;28;20630;-69
2022/07/06 05:32:26;;;;;;;12.77;12.38;;;;;;;-141.02;100.00;55844.97;5095021;28;20232;-69
2022/07/06 05:34:52;;;;;;;12.95;12.55;;;;;;;-141.02;100.00;55844.97;5094958;28;20198;-69
2022/07/06 05:37:19;;;;;;;13.45;12.95;;;;;;;-141.02;100.00;55844.97;5094491;28;20225;-69
2022/07/06 05:39:49;;;;;;;13.85;13.35;;;;;;;-141.02;100.00;55844.97;5094908;28;20292;-70
2022/07/06 05:42:16;;;;;;;13.77;13.27;;;;;;;-141.02;100.00;55844.97;5094467;28;20190;-69
2022/07/06 05:44:43;;;;;;;14.30;13.80;;;;;;;-141.02;100.00;55844.97;5094755;28;20194;-69
2022/07/06 05:50:13;;;;;;;14.40;13.90;;;;;;;-141.02;100.00;55844.97;5094780;28;20236;-69
2022/07/06 05:52:40;;;;;;;14.32;13.82;;;;;;;-141.02;100.00;55844.97;5094648;28;20284;-69
2022/07/06 05:55:09;;;;;;;14.30;13.80;;;;;;;-141.02;100.00;55844.97;5094069;28;20746;-69
2022/07/06 05:57:36;;;;;;;13.32;12.93;;;;;;;-141.02;100.00;55844.97;5094426;28;20601;-69
2022/07/06 06:00:04;;;;;;;12.95;12.55;;;;;;;-141.02;100.00;55844.97;5094177;28;20223;-69
2022/07/06 06:02:38;;;;;;;12.88;12.48;;;;;;;-141.02;100.00;55844.97;5094399;28;20202;-69
2022/07/06 06:05:07;;;;;;;13.10;12.70;;;;;;;-141.02;100.00;55844.97;5094085;28;20194;-70
2022/07/06 06:07:35;;;;;;;12.60;12.20;;;;;;;-141.02;100.00;55844.97;5094324;28;20202;-70
2022/07/06 06:10:04;;;;;;;12.90;12.50;;;;;;;-141.02;100.00;55844.97;5093973;28;20194;-70
2022/07/06 06:12:33;;;;;;;13.52;13.13;;;;;;;-141.02;100.00;55844.97;5094227;28;20198;-70
2022/07/06 06:15:00;;;;;;;13.07;12.68;;;;;;;-141.02;100.00;55844.97;5093869;28;20194;-70
2022/07/06 06:17:27;;;;;;;14.00;13.50;;;;;;;-141.02;100.00;55844.97;5093770;28;20221;-70
2022/07/06 06:19:54;;;;;;;14.45;13.95;;;;;;;-141.02;100.00;55844.97;5094912;28;20202;-70
2022/07/06 06:22:22;;;;;;;14.88;14.38;;;;;;;-141.02;100.00;55844.97;5093785;28;20223;-70
2022/07/06 06:24:49;;;;;;;15.07;14.57;;;;;;;-141.02;100.00;55844.97;5093970;28;20278;-69
2022/07/06 06:27:16;;;;;;;15.20;14.60;;;;;;;-141.02;100.00;55844.97;5093930;28;20251;-69
2022/07/06 06:29:45;;;;;;;15.30;14.70;;;;;;;-141.02;100.00;55844.97;5093579;28;20737;-70
2022/07/06 06:32:12;;;;;;;14.95;14.45;;;;;;;-141.02;100.00;55844.97;5093476;28;20241;-70
2022/07/06 06:34:40;;;;;;;14.45;13.95;;;;;;;-141.02;100.00;55844.97;5093505;28;20732;-70
2022/07/06 06:37:07;;;;;;;14.00;13.50;;;;;;;-141.02;100.00;55844.97;5093376;28;20190;-70
2022/07/06 06:39:34;;;;;;;13.38;12.90;;;;;;;-141.02;100.00;55844.97;5093765;28;20189;-70
2022/07/06 06:42:01;;;;;;;13.00;12.60;;;;;;;-141.02;100.00;55844.97;5093396;28;20786;-70
2022/07/06 06:44:28;;;;;;;13.85;13.35;;;;;;;-141.02;100.00;55844.97;5093321;28;20194;-70
2022/07/06 06:46:57;;;;;;;14.73;14.23;;;;;;;-141.02;100.00;55844.97;5093272;28;20204;-70
2022/07/06 06:49:24;;;;;;;14.45;13.95;;;;;;;-141.02;100.00;55844.97;5093502;28;20655;-70
2022/07/06 06:51:51;;;;;;;14.80;14.30;;;;;;;-141.02;100.00;55844.97;5093162;28;20251;-70
2022/07/06 06:54:18;;;;;;;15.75;15.15;;;;;;;-141.02;100.00;55844.97;5092884;28;20333;-70
2022/07/06 06:56:45;;;;;;;15.65;15.05;;;;;;;-141.02;100.00;55844.97;5093391;28;20705;-70
2022/07/06 06:59:11;;;;;;;16.23;15.52;;;;;;;-141.02;100.00;55844.97;5093262;28;20264;-70
2022/07/06 07:01:39;;;;;;;16.38;15.68;;;;;;;-141.02;100.00;55844.97;5092796;28;20194;-70
2022/07/06 07:04:07;;;;;;;16.83;16.13;;;;;;;-141.02;100.00;55844.97;5092880;28;20278;-71
2022/07/06 07:06:34;;;;;;;17.17;16.48;;;;;;;-141.02;100.00;55844.97;5092587;28;20625;-70
2022/07/06 07:09:01;;;;;;;16.90;16.20;;;;;;;-141.02;100.00;55844.97;5092804;28;20233;-70
2022/07/06 07:11:28;;;;;;;16.80;16.10;;;;;;;-141.02;100.00;55844.97;5092794;28;20694;-70
2022/07/06 07:13:55;;;;;;;16.75;16.05;;;;;;;-141.02;100.00;55844.97;5093018;28;20256;-71
2022/07/06 07:16:24;;;;;;;16.70;16.00;;;;;;;-141.02;100.00;55844.97;5092720;28;20710;-71
2022/07/06 07:18:51;;;;;;;15.57;14.98;;;;;;;-141.02;100.00;55844.97;5092418;28;20236;-71
2022/07/06 07:21:19;;;;;;;15.88;15.18;;;;;;;-141.02;100.00;55844.97;5092937;28;20189;-70
2022/07/06 07:23:47;;;;;;;14.75;14.15;;;;;;;-141.02;100.00;55844.97;5092830;28;20194;-71
2022/07/06 07:26:14;;;;;;;15.40;14.80;;;;;;;-141.02;100.00;55844.97;5092588;28;20225;-72
2022/07/06 07:28:41;;;;;;;15.95;15.20;;;;;;;-141.02;100.00;55844.97;5092460;28;20190;-71
2022/07/06 07:31:08;;;;;;;16.38;15.30;;;;;;;-141.02;100.00;55844.97;5092733;28;20556;-71
2022/07/06 07:33:35;;;;;;;15.05;14.35;;;;;;;-141.02;100.00;55844.97;5092395;28;20194;-71
2022/07/06 07:36:02;;;;;;;16.40;15.50;;;;;;;-141.02;100.00;55844.97;5092630;28;20744;-72
2022/07/06 07:38:31;;;;;;;15.85;15.05;;;;;;;-141.02;100.00;55844.97;5092285;28;20738;-70
2022/07/06 07:40:58;;;;;;;15.65;14.85;;;;;;;-141.02;100.00;55844.97;5092651;28;20248;-71
2022/07/06 07:43:25;;;;;;;15.85;15.05;;;;;;;-141.02;100.00;55844.97;5092559;28;20193;-72
2022/07/06 07:45:52;;;;;;;14.73;14.02;;;;;;;-141.02;100.00;55844.97;5092252;28;20656;-71
2022/07/06 07:48:19;;;;;;;15.38;14.63;;;;;;;-141.02;100.00;55844.97;5092147;28;20201;-71
2022/07/06 07:50:46;;;;;;;16.15;15.35;;;;;;;-141.02;100.00;55844.97;5092142;28;20682;-71
2022/07/06 07:53:13;;;;;;;19.20;18.20;;;;;;;-141.02;100.00;55844.97;5092411;28;20640;-71
2022/07/06 07:55:41;;;;;;;18.35;17.35;;;;;;;-141.02;100.00;55844.97;5091961;28;20775;-72
2022/07/06 07:58:10;;;;;;;19.00;18.00;;;;;;;-141.02;100.00;55844.97;5092100;28;20333;-71
2022/07/06 08:00:37;;;;;;;17.85;16.95;;;;;;;-141.02;100.00;55844.97;5091979;28;20565;-72
2022/07/06 08:03:04;;;;;;;18.15;17.17;;;;;;;-141.02;100.00;55844.97;5092344;28;20201;-72
2022/07/06 08:05:32;;;;;;;17.50;16.60;;;;;;;-141.02;100.00;55844.97;5092280;28;20194;-72
2022/07/06 08:07:59;;;;;;;17.63;16.73;;;;;;;-141.02;100.00;55844.97;5092317;28;20194;-71
2022/07/06 08:10:26;;;;;;;18.25;17.35;;;;;;;-141.02;100.00;55844.97;5087944;28;20267;-73
2022/07/06 08:12:54;;;;;;;18.27;17.38;;;;;;;-141.02;100.00;55844.97;5077777;28;20202;-73
2022/07/06 08:15:21;;;;;;;18.00;17.00;;;;;;;-141.02;100.00;55844.97;5072549;28;20686;-72
2022/07/06 08:17:48;;;;;;;19.73;18.52;;;;;;;-141.02;100.00;55844.97;5072536;28;20640;-76
2022/07/06 08:20:15;;;;;;;17.27;16.38;;;;;;;-141.02;100.00;55844.97;5071166;28;20281;-74
2022/07/06 08:22:43;;;;;;;16.20;15.40;;;;;;;-141.02;100.00;55844.97;5074647;28;20668;-74
2022/07/06 08:25:11;;;;;;;16.67;15.88;;;;;;;-141.02;100.00;55844.97;5074136;28;20202;-74
2022/07/06 08:27:38;;;;;;;16.27;15.48;;;;;;;-141.02;100.00;55844.97;5075303;28;20330;-72
2022/07/06 08:30:08;;;;;;;16.90;16.00;;;;;;;-141.02;100.00;55844.97;5069935;28;20205;-73
2022/07/06 08:32:38;;;;;;;16.20;15.40;;;;;;;-141.02;100.00;55844.97;5071254;28;20623;-72
2022/07/06 08:35:06;;;;;;;16.10;15.30;;;;;;;-141.02;100.00;55844.97;5071782;28;20205;-73
2022/07/06 08:37:33;;;;;;;16.27;15.48;;;;;;;-141.02;100.00;55844.97;5071580;28;20194;-73
2022/07/06 08:40:00;;;;;;;16.55;15.65;;;;;;;-141.02;100.00;55844.97;5075296;28;20663;-73
2022/07/06 08:42:30;;;;;;;16.80;15.90;;;;;;;-141.02;100.00;55844.97;5075651;28;20274;-73
2022/07/06 08:45:00;;;;;;;16.90;16.00;;;;;;;-141.02;100.00;55844.97;5075713;28;20270;-74
2022/07/06 08:47:29;;;;;;;16.95;16.05;;;;;;;-141.02;100.00;55844.97;5075519;28;20194;-73
2022/07/06 08:49:56;;;;;;;18.00;16.52;;;;;;;-141.02;100.00;55844.97;5075059;28;20656;-72
2022/07/06 08:52:24;;;;;;;15.77;14.98;;;;;;;-141.02;100.00;55844.97;5075329;28;20202;-76
2022/07/06 08:54:51;;;;;;;16.35;15.45;;;;;;;-141.02;100.00;55844.97;5075057;28;20261;-75
2022/07/06 08:57:19;;;;;;;15.02;14.32;;;;;;;-141.02;100.00;55844.97;5075104;28;20194;-76
2022/07/06 08:59:46;;;;;;;15.13;14.43;;;;;;;-141.02;100.00;55844.97;5075197;28;20313;-76
2022/07/06 09:02:14;;;;;;;14.90;14.20;;;;;;;-141.02;100.00;55844.97;5075282;28;20202;-75
2022/07/06 09:04:44;;;;;;;14.55;13.85;;;;;;;-141.02;100.00;55844.97;5074891;28;20194;-75
2022/07/06 09:07:11;;;;;;;14.32;13.63;;;;;;;-141.02;100.00;55844.97;5075202;28;20226;-76
2022/07/06 09:09:40;;;;;;;14.55;13.85;;;;;;;-141.02;100.00;55844.97;5075153;28;20194;-76
2022/07/06 09:12:13;;;;;;;14.30;13.70;;;;;;;-141.02;100.00;55844.97;5075115;28;20217;-77
2022/07/06 09:14:40;;;;;;;14.73;14.02;;;;;;;-141.02;100.00;55844.97;5074723;28;20649;-76
2022/07/06 09:17:08;;;;;;;15.15;14.45;;;;;;;-141.02;100.00;55844.97;5074720;28;20237;-76
2022/07/06 09:19:36;;;;;;;15.40;14.60;;;;;;;-141.02;100.00;55844.97;5075086;28;20230;-75
2022/07/06 09:22:05;;;;;;;15.70;14.90;;;;;;;-141.02;100.00;55844.97;5074631;28;20241;-76
2022/07/06 09:24:32;;;;;;;15.10;14.40;;;;;;;-141.02;100.00;55844.97;5074907;28;20201;-79
2022/07/06 09:27:00;;;;;;;16.15;15.25;;;;;;;-141.02;100.00;55844.97;5074541;28;20199;-77
2022/07/06 09:29:31;;;;;;;15.40;14.60;;;;;;;-141.02;100.00;55844.97;5074521;28;20198;-73
2022/07/06 09:31:59;;;;;;;15.30;14.60;;;;;;;-141.02;100.00;55844.97;5074791;28;20194;-75
2022/07/06 09:34:26;;;;;;;15.10;14.40;;;;;;;-141.02;100.00;55844.97;5074463;28;20716;-74
2022/07/06 09:36:53;;;;;;;15.40;14.70;;;;;;;-141.02;100.00;55844.97;5074160;28;20203;-77
2022/07/06 09:39:24;;;;;;;15.45;14.75;;;;;;;-141.02;100.00;55844.97;5073934;28;20746;-77
2022/07/06 09:41:53;;;;;;;15.90;15.20;;;;;;;-141.02;100.00;55844.97;5074270;28;20687;-77
2022/07/06 09:44:22;;;;;;;16.80;16.10;;;;;;;-141.02;100.00;55844.97;5074617;28;20645;-75
2022/07/06 09:46:49;;;;;;;16.70;15.90;;;;;;;-141.02;100.00;55844.97;5074535;28;20194;-76
2022/07/06 09:49:18;;;;;;;15.88;15.18;;;;;;;-141.02;100.00;55844.97;5073906;28;20191;-75
2022/07/06 09:51:46;;;;;;;17.23;16.35;;;;;;;-141.02;100.00;55844.97;5073819;28;20209;-81
2022/07/06 09:54:13;;;;;;;16.30;15.50;;;;;;;-141.02;100.00;55844.97;5073845;28;20672;-77
2022/07/06 09:56:46;;;;;;;17.83;16.75;;;;;;;-141.02;100.00;55844.97;5074059;28;20277;-79
2022/07/06 09:59:14;;;;;;;17.50;16.60;;;;;;;-141.02;100.00;55844.97;5074018;28;20253;-75
2022/07/06 10:01:42;;;;;;;17.30;16.40;;;;;;;-141.02;100.00;55844.97;5074265;28;20194;-77
2022/07/06 10:04:12;;;;;;;16.90;16.08;;;;;;;-141.02;100.00;55844.97;5074255;28;20615;-76
2022/07/06 10:06:40;;;;;;;17.48;16.58;;;;;;;-141.02;100.00;55844.97;5073952;28;20186;-79
2022/07/06 10:09:09;;;;;;;17.75;16.85;;;;;;;-141.02;100.00;55844.97;5073834;28;20281;-77
2022/07/06 10:11:40;;;;;;;18.50;17.60;;;;;;;-141.02;100.00;55844.97;5074025;28;20255;-77
2022/07/06 10:14:09;;;;;;;17.05;16.25;;;;;;;-141.02;100.00;55844.97;5074150;28;20190;-80
2022/07/06 10:16:38;;;;;;;17.33;16.52;;;;;;;-141.02;100.00;55844.97;5074074;28;20198;-77
2022/07/06 10:19:07;;;;;;;17.55;16.75;;;;;;;-141.02;100.00;55844.97;5073858;28;20226;-77
2022/07/06 10:21:37;;;;;;;18.10;17.30;;;;;;;-141.02;100.00;55844.97;5073601;28;20201;-79
2022/07/06 10:24:05;;;;;;;17.58;16.77;;;;;;;-141.02;100.00;55844.97;5073783;28;20201;-78
2022/07/06 10:26:34;;;;;;;17.65;16.92;;;;;;;-141.02;100.00;55844.97;5073463;28;20195;-80
2022/07/06 10:29:02;;;;;;;18.60;17.70;;;;;;;-141.02;100.00;55844.97;5073728;28;20668;-78
2022/07/06 10:31:31;;;;;;;19.40;18.50;;;;;;;-141.02;100.00;55844.97;5073748;28;20652;-77
2022/07/06 10:34:01;;;;;;;18.85;18.05;;;;;;;-141.02;100.00;55844.97;5074133;28;20264;-79
2022/07/06 10:36:29;;;;;;;19.63;18.73;;;;;;;-141.02;100.00;55844.97;5073326;28;20196;-78
2022/07/06 10:38:56;;;;;;;19.52;18.70;;;;;;;-141.02;100.00;55844.97;5073093;28;20226;-78
2022/07/06 10:41:32;;;;;;;20.75;19.33;;;;;;;-141.02;100.00;55844.97;5073211;28;20198;-76
2022/07/06 10:44:15;;;;;;;19.35;18.55;;;;;;;-141.02;100.00;55844.97;5072585;28;20617;-79
2022/07/06 10:46:51;;;;;;;19.60;18.70;;;;;;;-141.02;100.00;55844.97;5073109;28;20283;-80
2022/07/06 10:49:19;;;;;;;18.80;18.00;;;;;;;-141.02;100.00;55844.97;5073026;28;20277;-78
2022/07/06 10:51:47;;;;;;;18.98;18.17;;;;;;;-141.02;100.00;55844.97;5073251;28;20198;-78
2022/07/06 10:54:15;;;;;;;19.27;18.38;;;;;;;-141.02;100.00;55844.97;5072754;28;20253;-78
2022/07/06 10:56:45;;;;;;;18.45;17.65;;;;;;;-141.02;100.00;55844.97;5072957;28;20183;-78
2022/07/06 10:59:13;;;;;;;20.23;19.23;;;;;;;-141.02;100.00;55844.97;5073030;28;20226;-79
2022/07/06 11:01:41;;;;;;;20.63;19.27;;;;;;;-141.02;100.00;55844.97;5072413;28;20226;-77